Time;durP1;ratioP1;P1;durP2;ratioP2;P2;SDS_P1;SDS_P2;PMS_P1;PMS_P2;Temp;Humidity;BMP_temperature;BMP_pressure;BME280_temperature;BME280_humidity;BME280_pressure;Samples;Min_cycle;Max_cycle;Signal;HPM_P1;HPM_P2
2021/08/19 00:00:43;;;;;;;4.18;3.18;;;;;;;;;;362532;145;858934;-59
2021/08/19 00:01:44;;;;;;;7.01;3.40;;;;;;;;;;362672;145;857734;-58
2021/08/19 00:02:46;;;;;;;8.25;2.93;;;;;;;;;;362557;146;864787;-59
2021/08/19 00:03:47;;;;;;;5.94;3.14;;;;;;;;;;363432;148;857331;-58
2021/08/19 00:04:51;;;;;;;5.80;3.19;;;;;;;;;;363085;145;857384;-59
2021/08/19 00:05:52;;;;;;;9.68;3.81;;;;;;;;;;363468;145;859067;-58
2021/08/19 00:06:54;;;;;;;5.32;3.23;;;;;;;;;;363051;146;857914;-59
2021/08/19 00:07:56;;;;;;;10.35;3.33;;;;;;;;;;363374;145;857832;-58
2021/08/19 00:08:57;;;;;;;6.12;3.29;;;;;;;;;;362783;145;859284;-58
2021/08/19 00:09:59;;;;;;;6.12;3.46;;;;;;;;;;363159;147;859281;-59
2021/08/19 00:11:02;;;;;;;5.88;3.23;;;;;;;;;;363728;146;859667;-59
2021/08/19 00:12:07;;;;;;;5.67;3.06;;;;;;;;;;365392;145;859453;-59
2021/08/19 00:13:09;;;;;;;5.61;3.18;;;;;;;;;;362558;145;857387;-59
2021/08/19 00:14:10;;;;;;;3.49;3.10;;;;;;;;;;362597;148;864942;-59
2021/08/19 00:15:12;;;;;;;4.03;3.12;;;;;;;;;;362854;145;866773;-59
2021/08/19 00:16:15;;;;;;;5.14;3.24;;;;;;;;;;362461;145;858964;-59
2021/08/19 00:17:17;;;;;;;5.90;3.38;;;;;;;;;;362851;146;857216;-59
2021/08/19 00:18:18;;;;;;;3.36;2.82;;;;;;;;;;362888;145;857410;-59
2021/08/19 00:19:20;;;;;;;5.49;2.99;;;;;;;;;;364415;145;857220;-59
2021/08/19 00:20:22;;;;;;;6.95;3.09;;;;;;;;;;362772;145;857705;-59
2021/08/19 00:21:24;;;;;;;4.71;2.75;;;;;;;;;;364144;146;857421;-60
2021/08/19 00:22:25;;;;;;;4.97;3.05;;;;;;;;;;364174;145;857325;-59
2021/08/19 00:23:27;;;;;;;6.49;2.86;;;;;;;;;;363232;145;857249;-59
2021/08/19 00:24:29;;;;;;;4.41;2.72;;;;;;;;;;363219;148;857941;-59
2021/08/19 00:25:32;;;;;;;6.33;2.88;;;;;;;;;;363562;145;857395;-60
2021/08/19 00:26:34;;;;;;;7.02;3.12;;;;;;;;;;362611;145;857367;-59
2021/08/19 00:27:36;;;;;;;3.60;2.67;;;;;;;;;;363415;145;866259;-59
2021/08/19 00:28:37;;;;;;;5.60;3.13;;;;;;;;;;365123;147;864822;-60
2021/08/19 00:29:39;;;;;;;4.04;2.47;;;;;;;;;;363661;146;867059;-59
2021/08/19 00:30:41;;;;;;;5.21;3.35;;;;;;;;;;363191;145;859002;-59
2021/08/19 00:31:43;;;;;;;4.22;3.03;;;;;;;;;;362746;147;859004;-60
2021/08/19 00:32:45;;;;;;;4.04;3.06;;;;;;;;;;362554;148;860309;-60
2021/08/19 00:33:46;;;;;;;3.71;2.42;;;;;;;;;;363285;145;858580;-59
2021/08/19 00:34:48;;;;;;;3.61;2.74;;;;;;;;;;362789;146;857707;-60
2021/08/19 00:35:50;;;;;;;5.06;2.91;;;;;;;;;;363040;148;857863;-59
2021/08/19 00:36:53;;;;;;;4.06;2.99;;;;;;;;;;363018;145;858919;-59
2021/08/19 00:37:55;;;;;;;5.38;2.75;;;;;;;;;;362978;145;858931;-60
2021/08/19 00:38:58;;;;;;;6.11;3.48;;;;;;;;;;363221;147;857304;-59
2021/08/19 00:40:00;;;;;;;4.93;2.94;;;;;;;;;;363356;145;860398;-59
2021/08/19 00:41:03;;;;;;;4.49;2.93;;;;;;;;;;365995;145;858969;-59
2021/08/19 00:42:05;;;;;;;6.92;3.27;;;;;;;;;;362909;145;860539;-59
2021/08/19 00:43:07;;;;;;;6.80;2.87;;;;;;;;;;363532;147;858917;-59
2021/08/19 00:44:08;;;;;;;3.47;2.91;;;;;;;;;;363537;146;857508;-59
2021/08/19 00:45:11;;;;;;;4.37;2.77;;;;;;;;;;363947;145;857335;-59
2021/08/19 00:46:27;;;;;;;3.34;2.75;;;;;;;;;;365619;147;857310;-59
2021/08/19 00:47:29;;;;;;;5.45;3.07;;;;;;;;;;364218;145;858645;-59
2021/08/19 00:48:31;;;;;;;7.11;2.91;;;;;;;;;;363762;145;857300;-59
2021/08/19 00:49:34;;;;;;;4.51;2.58;;;;;;;;;;363434;147;857548;-58
2021/08/19 00:50:37;;;;;;;4.25;2.87;;;;;;;;;;363672;145;859117;-59
2021/08/19 00:51:44;;;;;;;4.78;3.14;;;;;;;;;;362852;146;865404;-59
2021/08/19 00:52:45;;;;;;;4.32;2.87;;;;;;;;;;360835;149;857212;-59
2021/08/19 01:13:57;;;;;;;5.14;2.96;;;;;;;17.33;67.35;99578.29;405179;129;879479;-59
2021/08/19 01:14:59;;;;;;;5.44;2.70;;;;;;;17.19;67.42;99581.47;393404;133;856991;-59
2021/08/19 01:16:03;;;;;;;4.11;2.78;;;;;;;17.04;67.72;99577.73;398694;132;867174;-59
2021/08/19 01:17:06;;;;;;;5.22;3.11;;;;;;;17.02;68.02;99574.33;394916;132;864708;-59
2021/08/19 01:18:08;;;;;;;5.91;2.92;;;;;;;17.00;68.12;99570.93;393798;135;857291;-59
2021/08/19 01:19:17;;;;;;;7.17;3.06;;;;;;;16.99;68.39;99569.23;397089;135;866135;-60
2021/08/19 01:20:26;;;;;;;4.77;2.98;;;;;;;17.02;68.53;99573.47;396296;133;866643;-59
2021/08/19 01:21:28;;;;;;;5.96;3.09;;;;;;;;;;392320;135;857364;-59
2021/08/19 01:22:29;;;;;;;7.08;2.83;;;;;;;;;;397540;134;857297;-59
2021/08/19 01:23:31;;;;;;;9.20;3.46;;;;;;;;;;398550;132;864674;-59
2021/08/19 01:24:32;;;;;;;4.76;2.84;;;;;;;;;;396280;134;857366;-60
2021/08/19 01:25:34;;;;;;;5.33;2.81;;;;;;;;;;395420;135;857202;-59
2021/08/19 01:26:36;;;;;;;6.02;3.01;;;;;;;;;;397464;133;865347;-60
2021/08/19 01:27:38;;;;;;;6.09;3.24;;;;;;;;;;398094;132;859794;-60
2021/08/19 01:28:39;;;;;;;9.15;2.89;;;;;;;;;;398684;133;858832;-60
2021/08/19 01:29:41;;;;;;;7.90;3.91;;;;;;;;;;393602;134;857349;-59
2021/08/19 01:30:44;;;;;;;5.51;2.93;;;;;;;;;;391584;133;857343;-60
2021/08/19 01:31:56;;;;;;;6.16;3.12;;;;;;;;;;395280;132;865607;-60
2021/08/19 01:32:58;;;;;;;8.81;3.48;;;;;;;;;;391509;135;859453;-60
2021/08/19 01:34:00;;;;;;;7.30;3.26;;;;;;;;;;389729;135;858774;-59
2021/08/19 01:35:01;;;;;;;5.66;2.94;;;;;;;;;;390359;135;857488;-59
2021/08/19 01:36:03;;;;;;;8.31;3.62;;;;;;;;;;391347;135;864819;-59
2021/08/19 01:37:05;;;;;;;4.01;2.74;;;;;;;;;;389620;135;864896;-59
2021/08/19 01:38:07;;;;;;;7.07;3.03;;;;;;;;;;388656;135;857264;-59
2021/08/19 01:39:08;;;;;;;4.85;3.02;;;;;;;;;;389119;135;857316;-59
2021/08/19 01:40:11;;;;;;;5.34;3.59;;;;;;;;;;392548;135;857312;-59
2021/08/19 01:41:13;;;;;;;6.37;3.21;;;;;;;;;;390199;135;864816;-59
2021/08/19 01:42:15;;;;;;;6.55;3.18;;;;;;;;;;388606;135;858646;-60
2021/08/19 01:43:16;;;;;;;6.50;3.43;;;;;;;;;;384705;135;859237;-59
2021/08/19 01:44:18;;;;;;;5.83;3.41;;;;;;;;;;394184;135;858921;-59
2021/08/19 01:45:21;;;;;;;6.18;3.39;;;;;;;;;;393189;135;858392;-60
2021/08/19 01:46:23;;;;;;;7.38;3.54;;;;;;;;;;390442;135;864910;-59
2021/08/19 01:47:24;;;;;;;9.06;3.81;;;;;;;;;;390837;135;857036;-59
2021/08/19 01:48:26;;;;;;;6.96;3.68;;;;;;;;;;392524;135;866540;-59
2021/08/19 01:49:31;;;;;;;4.49;3.28;;;;;;;;;;391129;135;858865;-59
2021/08/19 01:50:35;;;;;;;9.44;3.46;;;;;;;;;;388507;135;864630;-60
2021/08/19 01:51:36;;;;;;;5.70;3.11;;;;;;;;;;390527;135;859580;-59
2021/08/19 01:52:40;;;;;;;8.50;3.20;;;;;;;;;;391528;135;864756;-59
2021/08/19 01:53:42;;;;;;;6.54;3.27;;;;;;;;;;383780;138;866014;-60
2021/08/19 01:54:44;;;;;;;5.70;3.37;;;;;;;;;;388643;136;857194;-60
2021/08/19 01:55:46;;;;;;;5.68;3.13;;;;;;;;;;391648;135;857349;-59
2021/08/19 01:56:49;;;;;;;7.56;3.27;;;;;;;;;;385867;135;858606;-59
2021/08/19 01:57:50;;;;;;;9.14;3.66;;;;;;;;;;388012;136;860003;-59
2021/08/19 01:58:57;;;;;;;7.96;3.36;;;;;;;;;;391212;135;864888;-59
2021/08/19 01:59:56;;;;;;;5.12;3.12;;;;;;;;;;388018;137;864749;-59
2021/08/19 02:00:57;;;;;;;4.34;3.26;;;;;;;;;;388184;135;866243;-59
2021/08/19 02:02:00;;;;;;;3.89;3.14;;;;;;;;;;391289;135;864722;-59
2021/08/19 02:03:02;;;;;;;6.50;3.45;;;;;;;;;;386984;135;857284;-59
2021/08/19 02:04:04;;;;;;;6.61;3.04;;;;;;;;;;386110;138;864857;-60
2021/08/19 02:05:06;;;;;;;7.20;3.07;;;;;;;;;;389398;135;864800;-59
2021/08/19 02:06:08;;;;;;;5.39;3.56;;;;;;;;;;392649;135;858822;-59
2021/08/19 02:07:10;;;;;;;5.41;3.61;;;;;;;;;;390858;137;859029;-59
2021/08/19 02:08:11;;;;;;;5.71;3.36;;;;;;;;;;389060;137;857450;-59
2021/08/19 02:09:13;;;;;;;5.91;3.08;;;;;;;;;;390124;137;857375;-59
2021/08/19 02:10:15;;;;;;;4.97;3.25;;;;;;;;;;393266;135;857311;-61
2021/08/19 02:11:17;;;;;;;5.03;3.27;;;;;;;;;;392742;135;857170;-58
2021/08/19 02:12:19;;;;;;;6.49;3.17;;;;;;;;;;377816;139;865525;-59
2021/08/19 02:13:20;;;;;;;7.81;3.25;;;;;;;;;;378712;138;858147;-59
2021/08/19 02:14:22;;;;;;;4.91;3.39;;;;;;;;;;394524;135;858085;-59
2021/08/19 02:15:23;;;;;;;8.76;3.31;;;;;;;;;;389838;135;857415;-59
2021/08/19 02:16:27;;;;;;;4.34;3.21;;;;;;;;;;390873;135;857637;-58
2021/08/19 02:17:28;;;;;;;5.76;3.64;;;;;;;;;;392578;135;857431;-58
2021/08/19 02:18:30;;;;;;;5.66;3.31;;;;;;;;;;392602;135;864800;-58
2021/08/19 02:19:31;;;;;;;5.42;3.11;;;;;;;;;;392515;135;857155;-59
2021/08/19 02:20:34;;;;;;;3.97;3.19;;;;;;;;;;393890;135;857233;-58
2021/08/19 02:21:35;;;;;;;5.81;3.25;;;;;;;;;;391177;135;857225;-58
2021/08/19 02:22:37;;;;;;;6.59;3.18;;;;;;;;;;392900;135;857802;-59
2021/08/19 02:23:38;;;;;;;5.24;3.00;;;;;;;;;;393482;135;857191;-60
2021/08/19 02:24:40;;;;;;;7.71;3.57;;;;;;;;;;391863;135;857430;-59
2021/08/19 02:25:42;;;;;;;4.01;2.98;;;;;;;;;;388302;138;857276;-59
2021/08/19 02:26:44;;;;;;;4.18;2.99;;;;;;;;;;388048;135;858829;-60
2021/08/19 02:27:45;;;;;;;7.01;3.24;;;;;;;;;;390694;135;858999;-59
2021/08/19 02:28:47;;;;;;;8.71;3.23;;;;;;;;;;392712;135;857389;-59
2021/08/19 02:29:49;;;;;;;4.63;3.09;;;;;;;;;;391713;135;857180;-59
2021/08/19 02:30:52;;;;;;;6.37;3.34;;;;;;;;;;389090;136;857283;-59
2021/08/19 02:31:54;;;;;;;3.39;3.09;;;;;;;;;;389425;137;857380;-59
2021/08/19 02:32:56;;;;;;;5.74;3.24;;;;;;;;;;388948;136;866004;-59
2021/08/19 02:33:57;;;;;;;9.37;3.87;;;;;;;;;;388082;135;865415;-59
2021/08/19 02:34:59;;;;;;;5.44;2.99;;;;;;;;;;392162;135;857116;-59
2021/08/19 02:36:01;;;;;;;7.34;3.35;;;;;;;;;;390599;135;857298;-59
2021/08/19 02:37:02;;;;;;;6.14;3.16;;;;;;;;;;393345;135;857169;-59
2021/08/19 02:38:06;;;;;;;4.32;2.86;;;;;;;;;;390262;135;857549;-59
2021/08/19 02:39:07;;;;;;;7.66;3.84;;;;;;;;;;390843;136;865658;-59
2021/08/19 02:40:10;;;;;;;5.41;2.96;;;;;;;;;;391062;135;857370;-59
2021/08/19 02:41:11;;;;;;;9.83;3.23;;;;;;;;;;390646;135;866706;-59
2021/08/19 02:42:13;;;;;;;5.88;3.05;;;;;;;;;;390903;135;857357;-58
2021/08/19 02:43:14;;;;;;;5.67;3.46;;;;;;;;;;393095;135;857070;-59
2021/08/19 02:44:16;;;;;;;5.79;3.20;;;;;;;;;;393612;135;857134;-58
2021/08/19 02:45:17;;;;;;;6.13;3.12;;;;;;;;;;389685;135;857346;-58
2021/08/19 02:46:19;;;;;;;5.29;3.38;;;;;;;;;;389052;135;857190;-58
2021/08/19 02:47:21;;;;;;;3.69;3.06;;;;;;;;;;388618;135;857322;-58
2021/08/19 02:48:22;;;;;;;6.67;3.24;;;;;;;;;;391820;135;858933;-58
2021/08/19 02:49:24;;;;;;;7.61;3.73;;;;;;;;;;391417;135;859248;-58
2021/08/19 02:50:26;;;;;;;5.01;3.74;;;;;;;;;;390936;135;858208;-58
2021/08/19 02:51:27;;;;;;;6.04;3.59;;;;;;;;;;389122;135;864882;-58
2021/08/19 02:52:31;;;;;;;6.98;3.74;;;;;;;;;;388907;135;866434;-59
2021/08/19 02:53:33;;;;;;;7.24;4.07;;;;;;;;;;392546;135;859311;-59
2021/08/19 02:54:34;;;;;;;6.32;3.79;;;;;;;;;;388000;135;865816;-59
2021/08/19 02:55:36;;;;;;;11.56;4.24;;;;;;;;;;390860;135;864690;-59
2021/08/19 02:56:40;;;;;;;5.81;3.80;;;;;;;;;;392720;135;859046;-60
2021/08/19 02:57:41;;;;;;;6.41;4.21;;;;;;;;;;390295;135;858947;-60
2021/08/19 02:58:43;;;;;;;10.09;4.67;;;;;;;;;;387561;137;857799;-59
2021/08/19 02:59:44;;;;;;;7.41;3.97;;;;;;;;;;385870;136;859447;-60
2021/08/19 03:00:47;;;;;;;7.52;4.20;;;;;;;;;;388251;135;857650;-60
2021/08/19 03:01:49;;;;;;;6.99;3.39;;;;;;;;;;393568;135;861067;-60
2021/08/19 03:02:50;;;;;;;4.74;3.51;;;;;;;;;;392985;135;864725;-59
2021/08/19 03:03:52;;;;;;;6.54;3.40;;;;;;;;;;391735;135;865540;-60
2021/08/19 03:04:54;;;;;;;5.44;3.37;;;;;;;;;;392922;137;857576;-59
2021/08/19 03:05:55;;;;;;;4.61;2.85;;;;;;;;;;391660;135;857276;-59
2021/08/19 03:06:57;;;;;;;5.51;3.19;;;;;;;;;;388270;135;858804;-59
2021/08/19 03:07:59;;;;;;;5.14;3.39;;;;;;;;;;390145;136;857381;-59
2021/08/19 03:09:00;;;;;;;7.56;3.89;;;;;;;;;;380133;138;857318;-62
2021/08/19 03:10:03;;;;;;;6.60;3.41;;;;;;;;;;375279;141;858415;-59
2021/08/19 03:11:05;;;;;;;6.31;3.42;;;;;;;;;;372664;141;865892;-59
2021/08/19 03:12:06;;;;;;;4.85;3.06;;;;;;;;;;375835;141;857850;-59
2021/08/19 03:13:08;;;;;;;4.62;3.26;;;;;;;;;;384217;138;857358;-60
2021/08/19 03:14:09;;;;;;;4.34;3.26;;;;;;;;;;389725;135;866584;-58
2021/08/19 03:15:11;;;;;;;8.64;4.05;;;;;;;;;;386826;137;859563;-60
2021/08/19 03:16:14;;;;;;;12.01;3.04;;;;;;;;;;392012;135;859017;-59
2021/08/19 03:17:16;;;;;;;5.28;3.34;;;;;;;;;;392446;135;858685;-59
2021/08/19 03:18:17;;;;;;;5.54;3.33;;;;;;;;;;388024;136;857182;-59
2021/08/19 03:19:19;;;;;;;5.95;3.44;;;;;;;;;;392763;135;858965;-59
2021/08/19 03:20:22;;;;;;;5.03;3.54;;;;;;;;;;387777;136;857781;-59
2021/08/19 03:21:23;;;;;;;6.22;3.97;;;;;;;;;;387341;136;857175;-59
2021/08/19 03:22:25;;;;;;;7.36;3.78;;;;;;;;;;390312;135;866531;-60
2021/08/19 03:23:26;;;;;;;9.93;3.71;;;;;;;;;;393697;135;858592;-59
2021/08/19 03:24:28;;;;;;;3.96;3.45;;;;;;;;;;387886;135;865249;-63
2021/08/19 03:25:30;;;;;;;5.01;3.71;;;;;;;;;;393915;135;857672;-64
2021/08/19 03:26:32;;;;;;;5.38;4.12;;;;;;;;;;388899;135;864903;-63
2021/08/19 03:27:34;;;;;;;4.78;3.69;;;;;;;;;;392501;135;858311;-62
2021/08/19 03:28:35;;;;;;;7.14;3.65;;;;;;;;;;388031;135;857306;-62
2021/08/19 03:29:37;;;;;;;6.78;3.87;;;;;;;;;;391303;135;857191;-62
2021/08/19 03:30:40;;;;;;;6.92;3.64;;;;;;;;;;390274;136;857135;-62
2021/08/19 03:31:42;;;;;;;4.67;3.23;;;;;;;;;;390721;136;857250;-63
2021/08/19 03:32:43;;;;;;;7.25;3.37;;;;;;;;;;395790;135;858984;-63
2021/08/19 03:33:46;;;;;;;7.21;3.72;;;;;;;;;;392336;135;857493;-62
2021/08/19 03:34:47;;;;;;;5.04;3.77;;;;;;;;;;390687;135;859066;-63
2021/08/19 03:35:49;;;;;;;5.98;3.84;;;;;;;;;;386877;136;860860;-60
2021/08/19 03:36:51;;;;;;;4.54;3.42;;;;;;;;;;389153;137;857272;-62
2021/08/19 03:37:52;;;;;;;8.33;4.29;;;;;;;;;;392712;135;864940;-61
2021/08/19 03:38:54;;;;;;;6.23;3.82;;;;;;;;;;387221;135;857174;-60
2021/08/19 03:39:55;;;;;;;7.87;3.79;;;;;;;;;;396014;135;858409;-63
2021/08/19 03:40:57;;;;;;;4.57;3.51;;;;;;;;;;393077;135;857202;-64
2021/08/19 03:41:59;;;;;;;7.32;3.54;;;;;;;;;;390809;137;857372;-63
2021/08/19 03:43:00;;;;;;;6.50;3.59;;;;;;;;;;391088;135;859138;-63
2021/08/19 03:44:02;;;;;;;8.44;3.39;;;;;;;;;;389127;135;858172;-61
2021/08/19 03:45:05;;;;;;;5.60;3.37;;;;;;;;;;388625;136;858849;-63
2021/08/19 03:46:08;;;;;;;8.62;3.48;;;;;;;;;;388859;136;856331;-61
2021/08/19 03:47:11;;;;;;;8.92;4.14;;;;;;;;;;388357;135;856509;-63
2021/08/19 03:48:13;;;;;;;6.25;3.43;;;;;;;;;;390637;135;863786;-62
2021/08/19 03:49:14;;;;;;;7.47;4.21;;;;;;;;;;391128;135;856158;-62
2021/08/19 03:50:16;;;;;;;7.41;4.68;;;;;;;;;;392125;136;863640;-62
2021/08/19 03:51:18;;;;;;;4.59;3.81;;;;;;;;;;390842;135;856466;-61
2021/08/19 03:52:20;;;;;;;7.16;3.91;;;;;;;;;;387677;135;856452;-62
2021/08/19 03:53:21;;;;;;;11.59;4.06;;;;;;;;;;391262;135;856312;-62
2021/08/19 03:54:23;;;;;;;9.64;4.18;;;;;;;;;;390804;137;856469;-63
2021/08/19 03:55:24;;;;;;;6.15;4.06;;;;;;;;;;389253;137;856158;-62
2021/08/19 03:56:28;;;;;;;7.25;4.41;;;;;;;;;;387611;136;856580;-62
2021/08/19 03:57:29;;;;;;;6.41;4.03;;;;;;;;;;387654;135;863591;-61
2021/08/19 03:58:31;;;;;;;6.71;3.70;;;;;;;;;;389776;137;856292;-59
2021/08/19 03:59:33;;;;;;;5.54;3.44;;;;;;;;;;391701;135;856845;-60
2021/08/19 04:00:35;;;;;;;5.93;3.37;;;;;;;;;;392166;135;858023;-61
2021/08/19 04:01:36;;;;;;;8.74;3.95;;;;;;;;;;395231;135;856981;-61
2021/08/19 04:02:38;;;;;;;9.44;3.88;;;;;;;;;;391354;135;856139;-60
2021/08/19 04:03:39;;;;;;;6.84;3.69;;;;;;;;;;391051;136;856180;-62
2021/08/19 04:04:41;;;;;;;6.71;3.80;;;;;;;;;;395064;135;863608;-62
2021/08/19 04:05:42;;;;;;;7.53;3.44;;;;;;;;;;389484;136;856435;-64
2021/08/19 04:06:45;;;;;;;6.04;3.35;;;;;;;;;;390922;135;856090;-61
2021/08/19 04:07:47;;;;;;;6.41;3.96;;;;;;;;;;390793;135;864037;-62
2021/08/19 04:08:48;;;;;;;7.31;3.89;;;;;;;;;;390187;135;856127;-62
2021/08/19 04:09:50;;;;;;;5.91;3.68;;;;;;;;;;386837;135;856373;-63
2021/08/19 04:10:51;;;;;;;7.19;3.43;;;;;;;;;;389083;135;856177;-64
2021/08/19 04:11:53;;;;;;;8.46;3.68;;;;;;;;;;390794;135;864117;-62
2021/08/19 04:12:55;;;;;;;12.34;4.42;;;;;;;;;;391840;135;856854;-61
2021/08/19 04:13:56;;;;;;;7.07;3.79;;;;;;;;;;392542;135;856215;-61
2021/08/19 04:14:58;;;;;;;8.13;3.91;;;;;;;;;;389524;135;856467;-60
2021/08/19 04:15:59;;;;;;;7.11;3.37;;;;;;;;;;387760;135;856537;-60
2021/08/19 04:17:01;;;;;;;7.48;3.36;;;;;;;;;;390095;135;856516;-61
2021/08/19 04:18:02;;;;;;;10.23;3.89;;;;;;;;;;388628;136;856537;-61
2021/08/19 04:19:04;;;;;;;8.82;3.84;;;;;;;;;;387635;136;857487;-61
2021/08/19 04:20:06;;;;;;;8.11;4.29;;;;;;;;;;388682;136;856346;-60
2021/08/19 04:21:07;;;;;;;12.08;3.73;;;;;;;;;;386235;135;864030;-59
2021/08/19 04:22:09;;;;;;;9.25;3.82;;;;;;;;;;391451;135;856259;-59
2021/08/19 04:23:10;;;;;;;5.86;3.55;;;;;;;;;;389662;135;856509;-59
2021/08/19 04:24:12;;;;;;;8.54;3.84;;;;;;;;;;391478;135;856444;-66
2021/08/19 04:25:14;;;;;;;5.71;3.84;;;;;;;;;;390447;135;856321;-60
2021/08/19 04:26:17;;;;;;;7.08;3.68;;;;;;;;;;392080;135;856387;-65
2021/08/19 04:27:19;;;;;;;5.24;3.24;;;;;;;;;;394082;135;856147;-62
2021/08/19 04:28:20;;;;;;;5.85;3.61;;;;;;;;;;393726;135;856560;-62
2021/08/19 04:29:22;;;;;;;4.95;3.23;;;;;;;;;;391122;135;856852;-61
2021/08/19 04:30:24;;;;;;;5.04;3.27;;;;;;;;;;392535;135;856969;-61
2021/08/19 04:31:26;;;;;;;7.39;3.82;;;;;;;;;;392125;135;863674;-62
2021/08/19 04:32:28;;;;;;;6.26;3.57;;;;;;;;;;393601;135;858138;-62
2021/08/19 04:33:29;;;;;;;4.93;3.35;;;;;;;;;;389163;135;863655;-64
2021/08/19 04:34:31;;;;;;;4.51;3.29;;;;;;;;;;390477;135;856419;-61
2021/08/19 04:35:33;;;;;;;8.00;3.82;;;;;;;;;;391722;135;856532;-64
2021/08/19 04:36:35;;;;;;;5.53;3.53;;;;;;;;;;389671;136;856348;-60
2021/08/19 04:37:36;;;;;;;6.14;3.69;;;;;;;;;;390505;136;856432;-61
2021/08/19 04:38:38;;;;;;;6.41;3.29;;;;;;;;;;387410;136;863614;-61
2021/08/19 04:39:39;;;;;;;5.84;3.54;;;;;;;;;;388261;136;856888;-61
2021/08/19 04:40:41;;;;;;;5.78;3.49;;;;;;;;;;390349;135;856184;-61
2021/08/19 04:41:43;;;;;;;5.67;3.66;;;;;;;;;;389851;135;856513;-61
2021/08/19 04:42:45;;;;;;;4.62;3.18;;;;;;;;;;389159;135;856100;-60
2021/08/19 04:43:46;;;;;;;6.57;3.96;;;;;;;;;;388740;135;857045;-62
2021/08/19 04:44:48;;;;;;;4.99;3.34;;;;;;;;;;391698;135;856837;-62
2021/08/19 04:45:49;;;;;;;4.43;3.31;;;;;;;;;;381201;138;856349;-63
2021/08/19 04:46:51;;;;;;;6.07;3.41;;;;;;;;;;382043;138;856360;-61
2021/08/19 04:47:53;;;;;;;5.19;3.26;;;;;;;;;;377757;139;856438;-62
2021/08/19 04:48:54;;;;;;;5.72;3.46;;;;;;;;;;372847;143;856523;-62
2021/08/19 04:49:56;;;;;;;7.24;3.46;;;;;;;;;;375841;140;856218;-62
2021/08/19 04:50:58;;;;;;;5.78;3.72;;;;;;;;;;379202;139;856962;-60
2021/08/19 04:51:59;;;;;;;8.53;3.54;;;;;;;;;;380086;139;856506;-59
2021/08/19 04:53:01;;;;;;;5.76;3.31;;;;;;;;;;378433;138;856889;-60
2021/08/19 04:54:03;;;;;;;7.77;3.62;;;;;;;;;;373309;141;856263;-59
2021/08/19 04:55:05;;;;;;;5.02;2.94;;;;;;;;;;377292;141;856350;-59
2021/08/19 04:56:07;;;;;;;4.79;3.67;;;;;;;;;;379529;140;856289;-59
2021/08/19 04:57:08;;;;;;;5.70;3.35;;;;;;;;;;370682;141;863795;-59
2021/08/19 04:58:10;;;;;;;8.39;4.12;;;;;;;;;;380396;140;857141;-59
2021/08/19 04:59:12;;;;;;;6.97;3.48;;;;;;;;;;381923;138;857025;-58
2021/08/19 05:00:14;;;;;;;6.85;3.85;;;;;;;;;;379712;138;864032;-59
2021/08/19 05:01:15;;;;;;;4.36;3.46;;;;;;;;;;373561;141;856132;-59
2021/08/19 05:02:17;;;;;;;7.77;3.64;;;;;;;;;;373282;139;863851;-59
2021/08/19 05:03:18;;;;;;;6.74;3.49;;;;;;;;;;377215;140;856197;-59
2021/08/19 05:04:20;;;;;;;7.24;3.73;;;;;;;;;;389451;135;856303;-59
2021/08/19 05:05:22;;;;;;;6.65;3.52;;;;;;;;;;388202;135;856106;-60
2021/08/19 05:06:23;;;;;;;9.67;3.84;;;;;;;;;;391302;135;856276;-60
2021/08/19 05:07:26;;;;;;;5.51;3.70;;;;;;;;;;389482;136;863711;-60
2021/08/19 05:08:28;;;;;;;6.03;3.61;;;;;;;;;;382571;136;856370;-59
2021/08/19 05:09:29;;;;;;;5.04;3.29;;;;;;;;;;388206;136;863947;-59
2021/08/19 05:10:31;;;;;;;6.09;3.68;;;;;;;;;;392428;135;864153;-60
2021/08/19 05:11:33;;;;;;;5.70;3.49;;;;;;;;;;390832;135;856358;-60
2021/08/19 05:12:35;;;;;;;6.04;3.52;;;;;;;;;;392390;135;856180;-59
2021/08/19 05:13:36;;;;;;;7.81;3.86;;;;;;;;;;394811;135;864837;-59
2021/08/19 05:14:38;;;;;;;6.79;3.58;;;;;;;;;;390630;135;864516;-60
2021/08/19 05:15:40;;;;;;;4.57;3.39;;;;;;;;;;392715;135;864451;-60
2021/08/19 05:16:42;;;;;;;5.91;3.71;;;;;;;;;;388941;135;856344;-60
2021/08/19 05:17:43;;;;;;;5.16;3.46;;;;;;;;;;390783;135;856329;-60
2021/08/19 05:18:45;;;;;;;5.25;3.62;;;;;;;;;;387841;135;856293;-60
2021/08/19 05:19:47;;;;;;;4.94;3.79;;;;;;;;;;392965;135;856168;-59
2021/08/19 05:20:50;;;;;;;5.20;3.87;;;;;;;;;;387881;135;863803;-59
2021/08/19 05:21:51;;;;;;;4.50;3.72;;;;;;;;;;388900;135;856180;-59
2021/08/19 05:22:53;;;;;;;7.11;4.73;;;;;;;;;;386111;137;856289;-60
2021/08/19 05:23:54;;;;;;;4.96;3.76;;;;;;;;;;386380;135;856154;-59
2021/08/19 05:24:56;;;;;;;6.60;3.78;;;;;;;;;;389046;135;856799;-60
2021/08/19 05:25:57;;;;;;;4.70;3.64;;;;;;;;;;387508;137;857090;-58
2021/08/19 05:27:00;;;;;;;8.58;3.63;;;;;;;;;;389304;136;856296;-59
2021/08/19 05:28:01;;;;;;;5.31;3.46;;;;;;;;;;390096;135;856870;-59
2021/08/19 05:29:03;;;;;;;6.39;3.64;;;;;;;;;;388746;135;856254;-59
2021/08/19 05:30:07;;;;;;;9.77;3.84;;;;;;;;;;386003;136;856455;-59
2021/08/19 05:31:08;;;;;;;6.11;4.11;;;;;;;;;;390537;135;863692;-59
2021/08/19 05:32:10;;;;;;;6.26;3.83;;;;;;;;;;389238;135;858092;-60
2021/08/19 05:33:12;;;;;;;4.25;3.55;;;;;;;;;;391249;135;863623;-59
2021/08/19 05:34:13;;;;;;;7.22;3.58;;;;;;;;;;388838;135;856279;-59
2021/08/19 05:35:15;;;;;;;6.95;3.65;;;;;;;;;;387528;135;856786;-59
2021/08/19 05:36:17;;;;;;;4.46;3.81;;;;;;;;;;391817;135;856920;-59
2021/08/19 05:37:18;;;;;;;9.13;4.30;;;;;;;;;;388355;135;856236;-59
2021/08/19 05:38:20;;;;;;;7.77;3.73;;;;;;;;;;388209;136;856812;-59
2021/08/19 05:39:21;;;;;;;6.04;3.69;;;;;;;;;;388966;135;856517;-60
2021/08/19 05:40:24;;;;;;;6.53;3.53;;;;;;;;;;391774;135;856121;-59
2021/08/19 05:41:25;;;;;;;6.61;4.49;;;;;;;;;;391963;135;856463;-60
2021/08/19 05:42:27;;;;;;;4.49;3.56;;;;;;;;;;389013;135;856194;-60
2021/08/19 05:43:28;;;;;;;6.78;3.58;;;;;;;;;;389325;136;856505;-59
2021/08/19 05:44:30;;;;;;;4.14;3.54;;;;;;;;;;390742;135;863642;-59
2021/08/19 05:45:32;;;;;;;5.56;3.76;;;;;;;;;;391218;135;856372;-59
2021/08/19 05:46:34;;;;;;;5.63;3.75;;;;;;;;;;384649;137;856376;-60
2021/08/19 05:47:36;;;;;;;4.87;3.41;;;;;;;;;;384889;138;856897;-59
2021/08/19 05:48:37;;;;;;;5.75;3.92;;;;;;;;;;390807;135;856154;-59
2021/08/19 05:49:44;;;;;;;8.23;3.85;;;;;;;;;;392903;135;856626;-59
2021/08/19 05:50:45;;;;;;;3.89;3.38;;;;;;;;;;388920;136;856578;-59
2021/08/19 05:51:47;;;;;;;4.88;3.27;;;;;;;;;;387503;137;856814;-59
2021/08/19 05:52:49;;;;;;;7.71;3.86;;;;;;;;;;387554;135;858781;-58
2021/08/19 05:53:50;;;;;;;6.94;3.77;;;;;;;;;;393006;135;865707;-59
2021/08/19 05:54:52;;;;;;;5.02;3.47;;;;;;;;;;388213;135;858768;-58
2021/08/19 05:55:53;;;;;;;4.89;3.65;;;;;;;;;;384145;137;857271;-59
2021/08/19 05:56:55;;;;;;;7.86;3.61;;;;;;;;;;390721;135;857194;-58
2021/08/19 05:57:57;;;;;;;7.01;3.60;;;;;;;;;;389484;135;864855;-59
2021/08/19 05:58:58;;;;;;;4.53;3.49;;;;;;;;;;392364;135;856077;-59
2021/08/19 06:00:00;;;;;;;4.72;3.45;;;;;;;;;;390327;135;856882;-59
2021/08/19 06:01:02;;;;;;;6.32;3.84;;;;;;;;;;388776;135;856160;-60
2021/08/19 06:02:04;;;;;;;4.46;3.29;;;;;;;;;;375934;140;864912;-59
2021/08/19 06:03:05;;;;;;;7.41;3.62;;;;;;;;;;378999;140;864252;-59
2021/08/19 06:04:07;;;;;;;6.72;3.79;;;;;;;;;;375545;141;858124;-60
2021/08/19 06:05:09;;;;;;;4.81;3.61;;;;;;;;;;373433;141;856385;-60
2021/08/19 06:06:12;;;;;;;6.76;3.91;;;;;;;;;;375067;139;856337;-60
2021/08/19 06:07:14;;;;;;;5.56;3.97;;;;;;;;;;377137;138;856787;-60
2021/08/19 06:08:16;;;;;;;6.99;3.76;;;;;;;;;;392290;134;856229;-60
2021/08/19 06:09:18;;;;;;;7.07;3.73;;;;;;;;;;386182;135;856598;-60
2021/08/19 06:10:19;;;;;;;5.60;3.45;;;;;;;;;;389760;136;856288;-60
2021/08/19 06:11:21;;;;;;;6.34;3.64;;;;;;;;;;392451;135;857674;-59
2021/08/19 06:12:22;;;;;;;6.94;3.61;;;;;;;;;;392684;135;856214;-61
2021/08/19 06:13:24;;;;;;;4.32;3.66;;;;;;;;;;396902;135;856483;-60
2021/08/19 06:14:26;;;;;;;7.12;3.67;;;;;;;;;;391548;135;856240;-61
2021/08/19 06:15:27;;;;;;;7.11;3.77;;;;;;;;;;390342;135;863534;-60
2021/08/19 06:16:29;;;;;;;7.06;3.45;;;;;;;;;;390897;135;856232;-60
2021/08/19 06:17:33;;;;;;;6.34;3.28;;;;;;;;;;392298;136;863470;-61
2021/08/19 06:18:34;;;;;;;6.72;3.65;;;;;;;;;;385506;136;856445;-60
2021/08/19 06:19:36;;;;;;;5.48;3.39;;;;;;;;;;388908;136;856452;-60
2021/08/19 06:20:38;;;;;;;5.56;3.21;;;;;;;;;;393301;135;856449;-61
2021/08/19 06:21:39;;;;;;;5.58;3.27;;;;;;;;;;391390;136;856065;-60
2021/08/19 06:22:41;;;;;;;5.77;3.76;;;;;;;;;;389620;135;863704;-60
2021/08/19 06:23:43;;;;;;;5.65;3.47;;;;;;;;;;389643;135;856094;-60
2021/08/19 06:24:44;;;;;;;7.34;3.57;;;;;;;;;;391376;135;856242;-60